sensor_id;sensor_type;location;lat;lon;timestamp;pressure;altitude;pressure_sealevel;temperature;humidity
37132;BME280;23035;50.032;21.978;2023-12-20T00:03:59;65617.31;;;4.30;100.00
37132;BME280;23035;50.032;21.978;2023-12-20T00:09:06;65565.03;;;3.80;100.00
37132;BME280;23035;50.032;21.978;2023-12-20T00:14:15;65585.84;;;4.00;100.00
37132;BME280;23035;50.032;21.978;2023-12-20T00:19:26;65537.84;;;3.54;100.00
37132;BME280;23035;50.032;21.978;2023-12-20T00:24:38;65537.53;;;3.47;100.00
37132;BME280;23035;50.032;21.978;2023-12-20T00:29:51;65573.34;;;3.83;100.00
37132;BME280;23035;50.032;21.978;2023-12-20T00:35:11;65522.72;;;3.35;100.00
37132;BME280;23035;50.032;21.978;2023-12-20T00:40:38;65584.03;;;3.93;100.00
37132;BME280;23035;50.032;21.978;2023-12-20T00:46:11;65585.22;;;3.97;100.00
37132;BME280;23035;50.032;21.978;2023-12-20T00:51:31;65565.91;;;3.76;100.00
37132;BME280;23035;50.032;21.978;2023-12-20T00:56:45;65602.28;;;4.13;100.00
37132;BME280;23035;50.032;21.978;2023-12-20T01:02:14;65547.97;;;3.64;100.00
37132;BME280;23035;50.032;21.978;2023-12-20T01:07:45;65565.47;;;3.78;100.00
37132;BME280;23035;50.032;21.978;2023-12-20T01:12:54;65565.78;;;3.73;100.00
37132;BME280;23035;50.032;21.978;2023-12-20T01:18:17;65466.75;;;2.81;100.00
37132;BME280;23035;50.032;21.978;2023-12-20T01:23:26;65493.06;;;3.11;100.00
37132;BME280;23035;50.032;21.978;2023-12-20T01:28:36;65445.97;;;2.62;100.00
37132;BME280;23035;50.032;21.978;2023-12-20T01:33:58;65409.09;;;2.24;100.00
37132;BME280;23035;50.032;21.978;2023-12-20T01:39:07;65425.28;;;2.44;100.00
37132;BME280;23035;50.032;21.978;2023-12-20T01:44:29;65510.44;;;3.23;100.00
37132;BME280;23035;50.032;21.978;2023-12-20T01:49:43;65451.28;;;2.67;100.00
37132;BME280;23035;50.032;21.978;2023-12-20T01:55:09;65495.09;;;3.11;100.00
37132;BME280;23035;50.032;21.978;2023-12-20T02:00:21;65494.56;;;3.10;100.00
37132;BME280;23035;50.032;21.978;2023-12-20T02:05:32;65410.16;;;2.25;100.00
37132;BME280;23035;50.032;21.978;2023-12-20T02:10:40;65380.31;;;1.96;100.00
37132;BME280;23035;50.032;21.978;2023-12-20T02:15:56;65400.16;;;2.18;100.00
37132;BME280;23035;50.032;21.978;2023-12-20T02:21:06;65417.19;;;2.34;100.00
37132;BME280;23035;50.032;21.978;2023-12-20T02:26:19;65452.44;;;2.70;100.00
37132;BME280;23035;50.032;21.978;2023-12-20T02:31:27;65384.16;;;2.03;100.00
37132;BME280;23035;50.032;21.978;2023-12-20T02:36:37;65367.13;;;1.86;100.00
37132;BME280;23035;50.032;21.978;2023-12-20T02:41:55;65512.06;;;3.25;100.00
37132;BME280;23035;50.032;21.978;2023-12-20T02:47:03;65431.56;;;2.48;100.00
37132;BME280;23035;50.032;21.978;2023-12-20T02:52:08;65367.44;;;1.94;100.00
37132;BME280;23035;50.032;21.978;2023-12-20T02:57:18;65460.44;;;2.78;100.00
37132;BME280;23035;50.032;21.978;2023-12-20T03:02:23;65406.09;;;2.26;100.00
37132;BME280;23035;50.032;21.978;2023-12-20T03:07:29;65374.16;;;1.95;100.00
37132;BME280;23035;50.032;21.978;2023-12-20T03:12:36;65393.41;;;2.16;100.00
37132;BME280;23035;50.032;21.978;2023-12-20T03:17:48;65449.16;;;2.65;100.00
37132;BME280;23035;50.032;21.978;2023-12-20T03:22:54;65404.63;;;2.27;100.00
37132;BME280;23035;50.032;21.978;2023-12-20T03:28:03;65461.41;;;2.76;100.00
37132;BME280;23035;50.032;21.978;2023-12-20T03:33:11;65440.19;;;2.58;100.00
37132;BME280;23035;50.032;21.978;2023-12-20T03:38:17;65429.66;;;2.51;100.00
37132;BME280;23035;50.032;21.978;2023-12-20T03:43:27;65450.94;;;2.71;100.00
37132;BME280;23035;50.032;21.978;2023-12-20T03:48:35;65413.78;;;2.38;100.00
37132;BME280;23035;50.032;21.978;2023-12-20T03:53:43;65423.16;;;2.42;100.00
37132;BME280;23035;50.032;21.978;2023-12-20T03:58:56;65438.59;;;2.57;100.00
37132;BME280;23035;50.032;21.978;2023-12-20T04:04:02;65433.72;;;2.50;100.00
37132;BME280;23035;50.032;21.978;2023-12-20T04:09:11;65396.53;;;2.17;100.00
37132;BME280;23035;50.032;21.978;2023-12-20T04:14:34;65384.59;;;2.00;100.00
37132;BME280;23035;50.032;21.978;2023-12-20T04:19:41;65311.13;;;1.30;100.00
37132;BME280;23035;50.032;21.978;2023-12-20T04:24:55;65347.09;;;1.72;100.00
37132;BME280;23035;50.032;21.978;2023-12-20T04:30:35;65339.97;;;1.60;100.00
37132;BME280;23035;50.032;21.978;2023-12-20T04:35:42;65357.66;;;1.80;100.00
37132;BME280;23035;50.032;21.978;2023-12-20T04:40:54;65349.88;;;1.65;100.00
37132;BME280;23035;50.032;21.978;2023-12-20T04:46:02;65341.66;;;1.64;100.00
37132;BME280;23035;50.032;21.978;2023-12-20T04:51:08;65355.41;;;1.75;100.00
37132;BME280;23035;50.032;21.978;2023-12-20T04:56:17;65344.31;;;1.67;100.00
37132;BME280;23035;50.032;21.978;2023-12-20T05:01:25;65379.25;;;1.95;100.00
37132;BME280;23035;50.032;21.978;2023-12-20T05:06:34;65405.38;;;2.20;100.00
37132;BME280;23035;50.032;21.978;2023-12-20T05:11:40;65417.19;;;2.34;100.00
37132;BME280;23035;50.032;21.978;2023-12-20T05:17:04;65437.44;;;2.53;100.00
37132;BME280;23035;50.032;21.978;2023-12-20T05:22:29;65417.84;;;2.37;100.00
37132;BME280;23035;50.032;21.978;2023-12-20T05:27:43;65383.72;;;2.05;100.00
37132;BME280;23035;50.032;21.978;2023-12-20T05:33:05;65331.13;;;1.57;100.00
37132;BME280;23035;50.032;21.978;2023-12-20T05:38:36;65392.16;;;2.10;100.00
37132;BME280;23035;50.032;21.978;2023-12-20T05:43:56;65428.47;;;2.47;100.00
37132;BME280;23035;50.032;21.978;2023-12-20T05:49:20;65416.78;;;2.36;100.00
37132;BME280;23035;50.032;21.978;2023-12-20T05:54:53;65433.81;;;2.52;100.00
37132;BME280;23035;50.032;21.978;2023-12-20T06:00:17;65492.97;;;3.09;100.00
37132;BME280;23035;50.032;21.978;2023-12-20T06:05:30;65416.22;;;2.36;100.00
37132;BME280;23035;50.032;21.978;2023-12-20T06:10:59;65439.56;;;2.55;100.00
37132;BME280;23035;50.032;21.978;2023-12-20T06:16:35;65465.88;;;2.85;100.00
37132;BME280;23035;50.032;21.978;2023-12-20T06:22:00;65501.06;;;3.19;100.00
37132;BME280;23035;50.032;21.978;2023-12-20T06:27:43;65448.09;;;2.64;100.00
37132;BME280;23035;50.032;21.978;2023-12-20T06:33:16;65501.38;;;3.14;100.00
37132;BME280;23035;50.032;21.978;2023-12-20T06:38:24;65431.25;;;2.52;100.00
37132;BME280;23035;50.032;21.978;2023-12-20T06:43:30;65426.34;;;2.45;100.00
37132;BME280;23035;50.032;21.978;2023-12-20T06:48:57;65447.75;;;2.68;100.00
37132;BME280;23035;50.032;21.978;2023-12-20T06:54:06;65437.09;;;2.58;100.00
37132;BME280;23035;50.032;21.978;2023-12-20T06:59:23;65488.06;;;3.02;100.00
37132;BME280;23035;50.032;21.978;2023-12-20T07:04:31;65463.00;;;2.78;100.00
37132;BME280;23035;50.032;21.978;2023-12-20T07:09:38;65473.66;;;2.88;100.00
37132;BME280;23035;50.032;21.978;2023-12-20T07:14:47;65467.81;;;2.82;100.00
37132;BME280;23035;50.032;21.978;2023-12-20T07:19:53;65470.03;;;2.87;100.00
37132;BME280;23035;50.032;21.978;2023-12-20T07:25:00;65478.13;;;2.97;100.00
37132;BME280;23035;50.032;21.978;2023-12-20T07:30:10;65506.72;;;3.20;100.00
37132;BME280;23035;50.032;21.978;2023-12-20T07:35:16;65581.91;;;3.91;100.00
37132;BME280;23035;50.032;21.978;2023-12-20T07:40:25;65527.06;;;3.41;100.00
37132;BME280;23035;50.032;21.978;2023-12-20T07:45:32;65555.25;;;3.66;100.00
37132;BME280;23035;50.032;21.978;2023-12-20T07:50:37;65504.06;;;3.17;100.00
37132;BME280;23035;50.032;21.978;2023-12-20T07:55:53;65543.50;;;3.55;100.00
37132;BME280;23035;50.032;21.978;2023-12-20T08:01:00;65512.06;;;3.25;100.00
37132;BME280;23035;50.032;21.978;2023-12-20T08:06:10;65546.34;;;3.62;100.00
37132;BME280;23035;50.032;21.978;2023-12-20T08:11:17;65542.53;;;3.56;100.00
37132;BME280;23035;50.032;21.978;2023-12-20T08:16:23;65659.91;;;4.68;100.00
37132;BME280;23035;50.032;21.978;2023-12-20T08:21:28;65521.31;;;3.38;100.00
37132;BME280;23035;50.032;21.978;2023-12-20T08:26:41;65572.81;;;3.83;100.00
37132;BME280;23035;50.032;21.978;2023-12-20T08:31:52;65523.34;;;3.38;100.00
37132;BME280;23035;50.032;21.978;2023-12-20T08:36:59;65554.81;;;3.68;100.00
37132;BME280;23035;50.032;21.978;2023-12-20T08:42:07;65544.03;;;3.55;100.00
37132;BME280;23035;50.032;21.978;2023-12-20T08:47:12;65586.91;;;4.01;100.00
37132;BME280;23035;50.032;21.978;2023-12-20T08:52:20;65633.66;;;4.41;100.00
37132;BME280;23035;50.032;21.978;2023-12-20T08:57:26;65570.91;;;3.86;100.00
37132;BME280;23035;50.032;21.978;2023-12-20T09:02:31;65614.03;;;4.24;100.00
37132;BME280;23035;50.032;21.978;2023-12-20T09:07:39;65600.13;;;4.11;100.00
37132;BME280;23035;50.032;21.978;2023-12-20T09:12:45;65614.03;;;4.24;100.00
37132;BME280;23035;50.032;21.978;2023-12-20T09:17:51;65512.25;;;3.30;100.00
37132;BME280;23035;50.032;21.978;2023-12-20T09:22:56;65610.72;;;4.19;100.00
37132;BME280;23035;50.032;21.978;2023-12-20T09:28:02;65590.00;;;4.01;100.00
37132;BME280;23035;50.032;21.978;2023-12-20T09:33:07;65577.72;;;3.90;100.00
37132;BME280;23035;50.032;21.978;2023-12-20T09:38:13;65581.38;;;3.91;100.00
37132;BME280;23035;50.032;21.978;2023-12-20T09:43:24;65654.03;;;4.63;100.00
37132;BME280;23035;50.032;21.978;2023-12-20T09:48:30;65589.38;;;3.98;100.00
37132;BME280;23035;50.032;21.978;2023-12-20T09:53:37;65650.19;;;4.56;100.00
37132;BME280;23035;50.032;21.978;2023-12-20T09:58:45;65615.25;;;4.30;100.00
37132;BME280;23035;50.032;21.978;2023-12-20T10:03:51;65582.44;;;3.92;100.00
37132;BME280;23035;50.032;21.978;2023-12-20T10:08:59;65633.75;;;4.43;100.00
37132;BME280;23035;50.032;21.978;2023-12-20T10:14:06;65604.75;;;4.11;100.00
37132;BME280;23035;50.032;21.978;2023-12-20T10:19:12;65544.66;;;3.58;100.00
37132;BME280;23035;50.032;21.978;2023-12-20T10:24:21;65547.78;;;3.59;100.00
37132;BME280;23035;50.032;21.978;2023-12-20T10:29:33;65581.47;;;3.93;100.00
37132;BME280;23035;50.032;21.978;2023-12-20T10:34:42;65648.59;;;4.55;100.00
37132;BME280;23035;50.032;21.978;2023-12-20T10:39:50;65607.50;;;4.16;100.00
37132;BME280;23035;50.032;21.978;2023-12-20T10:44:59;65545.72;;;3.59;100.00
37132;BME280;23035;50.032;21.978;2023-12-20T10:50:06;65557.56;;;3.73;100.00
37132;BME280;23035;50.032;21.978;2023-12-20T10:55:13;65582.44;;;3.92;100.00
37132;BME280;23035;50.032;21.978;2023-12-20T11:00:21;65543.69;;;3.60;100.00
37132;BME280;23035;50.032;21.978;2023-12-20T11:05:36;65545.09;;;3.56;100.00
37132;BME280;23035;50.032;21.978;2023-12-20T11:10:49;65468.44;;;2.85;100.00
37132;BME280;23035;50.032;21.978;2023-12-20T11:16:08;65531.44;;;3.48;100.00
37132;BME280;23035;50.032;21.978;2023-12-20T11:21:14;65580.41;;;3.92;100.00
37132;BME280;23035;50.032;21.978;2023-12-20T11:26:23;65465.13;;;2.80;100.00
37132;BME280;23035;50.032;21.978;2023-12-20T11:31:42;65500.31;;;3.13;100.00
37132;BME280;23035;50.032;21.978;2023-12-20T11:36:47;65475.91;;;2.93;100.00
37132;BME280;23035;50.032;21.978;2023-12-20T11:42:33;65465.66;;;2.80;100.00
37132;BME280;23035;50.032;21.978;2023-12-20T11:48:00;65472.16;;;2.89;100.00
37132;BME280;23035;50.032;21.978;2023-12-20T11:53:27;65432.31;;;2.53;100.00
37132;BME280;23035;50.032;21.978;2023-12-20T11:58:37;65443.41;;;2.62;100.00
37132;BME280;23035;50.032;21.978;2023-12-20T12:04:12;65377.75;;;1.96;100.00
37132;BME280;23035;50.032;21.978;2023-12-20T12:09:51;65418.16;;;2.33;100.00
37132;BME280;23035;50.032;21.978;2023-12-20T12:14:59;65446.50;;;2.62;100.00
37132;BME280;23035;50.032;21.978;2023-12-20T12:20:16;65375.63;;;1.94;100.00
37132;BME280;23035;50.032;21.978;2023-12-20T12:25:29;65377.22;;;1.96;100.00
37132;BME280;23035;50.032;21.978;2023-12-20T12:30:35;65375.22;;;1.96;100.00
37132;BME280;23035;50.032;21.978;2023-12-20T12:35:49;65300.16;;;1.25;100.00
37132;BME280;23035;50.032;21.978;2023-12-20T12:40:55;65351.59;;;1.69;100.00
37132;BME280;23035;50.032;21.978;2023-12-20T12:46:00;65428.03;;;2.49;100.00
37132;BME280;23035;50.032;21.978;2023-12-20T12:51:06;65407.28;;;2.29;100.00
37132;BME280;23035;50.032;21.978;2023-12-20T12:56:15;65400.69;;;2.18;100.00
37132;BME280;23035;50.032;21.978;2023-12-20T13:01:20;65380.63;;;2.04;100.00
37132;BME280;23035;50.032;21.978;2023-12-20T13:06:27;65432.75;;;2.51;100.00
37132;BME280;23035;50.032;21.978;2023-12-20T13:11:38;65368.19;;;1.87;100.00
37132;BME280;23035;50.032;21.978;2023-12-20T13:16:44;65344.56;;;1.60;100.00
37132;BME280;23035;50.032;21.978;2023-12-20T13:21:56;65398.75;;;2.21;100.00
37132;BME280;23035;50.032;21.978;2023-12-20T13:27:07;65323.16;;;1.49;100.00
37132;BME280;23035;50.032;21.978;2023-12-20T13:32:12;65319.31;;;1.43;100.00
37132;BME280;23035;50.032;21.978;2023-12-20T13:37:19;65387.56;;;2.11;100.00
37132;BME280;23035;50.032;21.978;2023-12-20T13:42:25;65328.81;;;1.50;100.00
37132;BME280;23035;50.032;21.978;2023-12-20T13:47:43;65331.56;;;1.55;100.00
37132;BME280;23035;50.032;21.978;2023-12-20T13:52:54;65379.38;;;1.98;100.00
37132;BME280;23035;50.032;21.978;2023-12-20T13:58:00;65376.91;;;2.00;100.00
37132;BME280;23035;50.032;21.978;2023-12-20T14:03:05;65439.03;;;2.55;100.00
37132;BME280;23035;50.032;21.978;2023-12-20T14:08:12;65331.47;;;1.52;100.00
37132;BME280;23035;50.032;21.978;2023-12-20T14:13:17;65424.03;;;2.38;100.00
37132;BME280;23035;50.032;21.978;2023-12-20T14:18:22;65411.44;;;2.31;100.00
37132;BME280;23035;50.032;21.978;2023-12-20T14:23:28;65414.63;;;2.34;100.00
37132;BME280;23035;50.032;21.978;2023-12-20T14:28:33;65399.09;;;2.17;100.00
37132;BME280;23035;50.032;21.978;2023-12-20T14:33:38;65456.63;;;2.72;100.00
37132;BME280;23035;50.032;21.978;2023-12-20T14:38:46;65458.13;;;2.71;100.00
37132;BME280;23035;50.032;21.978;2023-12-20T14:43:53;65425.63;;;2.40;100.00
37132;BME280;23035;50.032;21.978;2023-12-20T14:48:57;65455.00;;;2.70;100.00
37132;BME280;23035;50.032;21.978;2023-12-20T14:54:06;65435.31;;;2.51;100.00
37132;BME280;23035;50.032;21.978;2023-12-20T14:59:13;65473.03;;;2.85;100.00
37132;BME280;23035;50.032;21.978;2023-12-20T15:04:18;65423.25;;;2.45;100.00
37132;BME280;23035;50.032;21.978;2023-12-20T15:09:30;65415.06;;;2.32;100.00
37132;BME280;23035;50.032;21.978;2023-12-20T15:14:35;65492.88;;;3.06;100.00
37132;BME280;23035;50.032;21.978;2023-12-20T15:19:41;65527.91;;;3.50;100.00
37132;BME280;23035;50.032;21.978;2023-12-20T15:24:48;65452.56;;;2.73;100.00
37132;BME280;23035;50.032;21.978;2023-12-20T15:29:58;65473.75;;;2.91;100.00
37132;BME280;23035;50.032;21.978;2023-12-20T15:35:08;65522.72;;;3.35;100.00
37132;BME280;23035;50.032;21.978;2023-12-20T15:40:21;65461.72;;;2.84;100.00
37132;BME280;23035;50.032;21.978;2023-12-20T15:45:31;65543.41;;;3.52;100.00
37132;BME280;23035;50.032;21.978;2023-12-20T15:50:46;65529.09;;;3.41;100.00
37132;BME280;23035;50.032;21.978;2023-12-20T15:55:58;65497.75;;;3.13;100.00
37132;BME280;23035;50.032;21.978;2023-12-20T16:01:05;65444.34;;;2.60;100.00
37132;BME280;23035;50.032;21.978;2023-12-20T16:06:18;65480.59;;;2.95;100.00
37132;BME280;23035;50.032;21.978;2023-12-20T16:11:43;65537.72;;;3.52;100.00
37132;BME280;23035;50.032;21.978;2023-12-20T16:16:50;65560.03;;;3.70;100.00
37132;BME280;23035;50.032;21.978;2023-12-20T16:22:00;65516.41;;;3.31;100.00
37132;BME280;23035;50.032;21.978;2023-12-20T16:27:21;65565.78;;;3.73;100.00
37132;BME280;23035;50.032;21.978;2023-12-20T16:34:14;65579.25;;;3.89;100.00
37132;BME280;23035;50.032;21.978;2023-12-20T16:46:16;65474.72;;;2.89;100.00
37132;BME280;23035;50.032;21.978;2023-12-20T16:51:24;65420.94;;;2.38;100.00
37132;BME280;23035;50.032;21.978;2023-12-20T16:56:49;65493.50;;;3.09;100.00
37132;BME280;23035;50.032;21.978;2023-12-20T17:02:10;65538.69;;;3.50;100.00
37132;BME280;23035;50.032;21.978;2023-12-20T17:07:23;65560.34;;;3.78;100.00
37132;BME280;23035;50.032;21.978;2023-12-20T17:12:33;65481.31;;;3.00;100.00
37132;BME280;23035;50.032;21.978;2023-12-20T17:17:46;65505.66;;;3.19;100.00
37132;BME280;23035;50.032;21.978;2023-12-20T17:22:55;65473.22;;;2.90;100.00
37132;BME280;23035;50.032;21.978;2023-12-20T17:28:10;65435.94;;;2.54;100.00
37132;BME280;23035;50.032;21.978;2023-12-20T17:33:22;65437.00;;;2.55;100.00
37132;BME280;23035;50.032;21.978;2023-12-20T17:38:27;65450.22;;;2.66;100.00
37132;BME280;23035;50.032;21.978;2023-12-20T17:43:36;65428.47;;;2.47;100.00
37132;BME280;23035;50.032;21.978;2023-12-20T17:48:46;65449.69;;;2.65;100.00
37132;BME280;23035;50.032;21.978;2023-12-20T17:53:56;65451.50;;;2.72;100.00
37132;BME280;23035;50.032;21.978;2023-12-20T17:59:04;65440.63;;;2.56;100.00
37132;BME280;23035;50.032;21.978;2023-12-20T18:04:11;65426.03;;;2.38;100.00
37132;BME280;23035;50.032;21.978;2023-12-20T18:09:20;65405.47;;;2.23;100.00
37132;BME280;23035;50.032;21.978;2023-12-20T18:14:30;65420.41;;;2.37;100.00
37132;BME280;23035;50.032;21.978;2023-12-20T18:19:36;65384.38;;;2.08;100.00
37132;BME280;23035;50.032;21.978;2023-12-20T18:24:42;65402.28;;;2.20;100.00
37132;BME280;23035;50.032;21.978;2023-12-20T18:30:02;65454.06;;;2.72;100.00
37132;BME280;23035;50.032;21.978;2023-12-20T18:35:53;65438.31;;;2.49;100.00
37132;BME280;23035;50.032;21.978;2023-12-20T18:41:23;65450.22;;;2.66;100.00
37132;BME280;23035;50.032;21.978;2023-12-20T18:46:28;65529.09;;;3.41;100.00
37132;BME280;23035;50.032;21.978;2023-12-20T18:51:36;65479.00;;;2.93;100.00
37132;BME280;23035;50.032;21.978;2023-12-20T18:56:44;65521.44;;;3.29;100.00
37132;BME280;23035;50.032;21.978;2023-12-20T19:01:49;65500.31;;;3.13;100.00
37132;BME280;23035;50.032;21.978;2023-12-20T19:06:56;65568.22;;;3.83;100.00
37132;BME280;23035;50.032;21.978;2023-12-20T19:12:04;65508.41;;;3.24;100.00
37132;BME280;23035;50.032;21.978;2023-12-20T19:17:10;65544.47;;;3.53;100.00
37132;BME280;23035;50.032;21.978;2023-12-20T19:22:19;65482.19;;;2.96;100.00
37132;BME280;23035;50.032;21.978;2023-12-20T19:27:24;65558.34;;;3.66;100.00
37132;BME280;23035;50.032;21.978;2023-12-20T19:32:33;65528.03;;;3.40;100.00
37132;BME280;23035;50.032;21.978;2023-12-20T19:38:01;65590.53;;;4.02;100.00
37132;BME280;23035;50.032;21.978;2023-12-20T19:43:07;65591.41;;;3.98;100.00
37132;BME280;23035;50.032;21.978;2023-12-20T19:48:13;65499.78;;;3.13;100.00
37132;BME280;23035;50.032;21.978;2023-12-20T19:53:20;65538.03;;;3.59;100.00
37132;BME280;23035;50.032;21.978;2023-12-20T19:58:26;65506.81;;;3.22;100.00
37132;BME280;23035;50.032;21.978;2023-12-20T20:03:33;65448.72;;;2.67;100.00
37132;BME280;23035;50.032;21.978;2023-12-20T20:08:39;65475.47;;;2.95;100.00
37132;BME280;23035;50.032;21.978;2023-12-20T20:13:44;65497.84;;;3.16;100.00
37132;BME280;23035;50.032;21.978;2023-12-20T20:18:50;65464.28;;;2.84;100.00
37132;BME280;23035;50.032;21.978;2023-12-20T20:24:00;65474.31;;;2.91;100.00
37132;BME280;23035;50.032;21.978;2023-12-20T20:29:05;65530.16;;;3.42;100.00
37132;BME280;23035;50.032;21.978;2023-12-20T20:34:10;65541.56;;;3.58;100.00
37132;BME280;23035;50.032;21.978;2023-12-20T20:39:17;65581.47;;;3.93;100.00
37132;BME280;23035;50.032;21.978;2023-12-20T20:44:22;65583.41;;;3.90;100.00
37132;BME280;23035;50.032;21.978;2023-12-20T20:49:27;65606.09;;;4.19;100.00
37132;BME280;23035;50.032;21.978;2023-12-20T20:54:34;65617.66;;;4.25;100.00
37132;BME280;23035;50.032;21.978;2023-12-20T20:59:39;65542.97;;;3.54;100.00
37132;BME280;23035;50.032;21.978;2023-12-20T21:04:47;65499.25;;;3.12;100.00
37132;BME280;23035;50.032;21.978;2023-12-20T21:09:54;65487.00;;;3.01;100.00
37132;BME280;23035;50.032;21.978;2023-12-20T21:14:59;65463.00;;;2.78;100.00
37132;BME280;23035;50.032;21.978;2023-12-20T21:20:05;65451.28;;;2.67;100.00
37132;BME280;23035;50.032;21.978;2023-12-20T21:25:13;65421.47;;;2.38;100.00
37132;BME280;23035;50.032;21.978;2023-12-20T21:30:18;65388.63;;;2.12;100.00
37132;BME280;23035;50.032;21.978;2023-12-20T21:35:25;65495.44;;;3.06;100.00
37132;BME280;23035;50.032;21.978;2023-12-20T21:40:32;65504.16;;;3.20;100.00
37132;BME280;23035;50.032;21.978;2023-12-20T21:45:39;65505.66;;;3.19;100.00
37132;BME280;23035;50.032;21.978;2023-12-20T21:51:00;65480.06;;;2.94;100.00
37132;BME280;23035;50.032;21.978;2023-12-20T21:56:10;65469.06;;;2.88;100.00
37132;BME280;23035;50.032;21.978;2023-12-20T22:01:15;65464.59;;;2.79;100.00
37132;BME280;23035;50.032;21.978;2023-12-20T22:06:20;65467.28;;;2.82;100.00
37132;BME280;23035;50.032;21.978;2023-12-20T22:11:27;65514.19;;;3.27;100.00
37132;BME280;23035;50.032;21.978;2023-12-20T22:16:34;65509.28;;;3.20;100.00
37132;BME280;23035;50.032;21.978;2023-12-20T22:21:41;65510.03;;;3.25;100.00
37132;BME280;23035;50.032;21.978;2023-12-20T22:26:47;65510.97;;;3.24;100.00
37132;BME280;23035;50.032;21.978;2023-12-20T22:31:54;65542.53;;;3.56;100.00
37132;BME280;23035;50.032;21.978;2023-12-20T22:37:00;65493.94;;;3.07;100.00
37132;BME280;23035;50.032;21.978;2023-12-20T22:42:08;65563.88;;;3.77;100.00
37132;BME280;23035;50.032;21.978;2023-12-20T22:47:14;65496.16;;;3.12;100.00
37132;BME280;23035;50.032;21.978;2023-12-20T22:52:19;65529.09;;;3.41;100.00
37132;BME280;23035;50.032;21.978;2023-12-20T22:57:28;65523.34;;;3.38;100.00
37132;BME280;23035;50.032;21.978;2023-12-20T23:02:34;65488.25;;;3.07;100.00
37132;BME280;23035;50.032;21.978;2023-12-20T23:07:51;65561.53;;;3.69;100.00
37132;BME280;23035;50.032;21.978;2023-12-20T23:12:57;65560.56;;;3.71;100.00
37132;BME280;23035;50.032;21.978;2023-12-20T23:18:06;65486.47;;;3.00;100.00
37132;BME280;23035;50.032;21.978;2023-12-20T23:23:11;65522.19;;;3.34;100.00
37132;BME280;23035;50.032;21.978;2023-12-20T23:28:18;65625.09;;;4.32;100.00
37132;BME280;23035;50.032;21.978;2023-12-20T23:33:23;65521.22;;;3.36;100.00
37132;BME280;23035;50.032;21.978;2023-12-20T23:38:31;65579.78;;;3.89;100.00
37132;BME280;23035;50.032;21.978;2023-12-20T23:43:39;65517.59;;;3.35;100.00
37132;BME280;23035;50.032;21.978;2023-12-20T23:48:44;65487.72;;;3.06;100.00
37132;BME280;23035;50.032;21.978;2023-12-20T23:53:49;65613.56;;;4.26;100.00
37132;BME280;23035;50.032;21.978;2023-12-20T23:58:56;65550.44;;;3.61;100.00
